Time;durP1;ratioP1;P1;durP2;ratioP2;P2;SDS_P1;SDS_P2;PMS_P1;PMS_P2;Temp;Humidity;BMP_temperature;BMP_pressure;BME280_temperature;BME280_humidity;BME280_pressure;Samples;Min_cycle;Max_cycle;Signal;HPM_P1;HPM_P2
2021/01/30 00:02:09;;;;;;;26.38;18.23;;;-0.40;99.90;;;;;;5114302;28;20197;-87
2021/01/30 00:04:36;;;;;;;22.58;17.35;;;-0.40;99.90;;;;;;5107792;28;20241;-85
2021/01/30 00:07:03;;;;;;;22.77;16.88;;;-0.50;99.90;;;;;;5111322;28;20201;-85
2021/01/30 00:09:30;;;;;;;34.40;21.13;;;-0.50;99.90;;;;;;5110158;28;20206;-86
2021/01/30 00:11:59;;;;;;;24.23;18.27;;;-0.50;99.90;;;;;;5107444;28;20202;-86
2021/01/30 00:14:27;;;;;;;24.98;17.02;;;-0.40;99.90;;;;;;5107341;28;20241;-85
2021/01/30 00:16:54;;;;;;;24.00;18.15;;;-0.50;99.90;;;;;;5104653;28;20590;-86
2021/01/30 00:19:21;;;;;;;27.70;18.73;;;-0.60;99.90;;;;;;5105798;28;20697;-85
2021/01/30 00:21:51;;;;;;;27.10;20.15;;;-0.70;99.90;;;;;;5108712;28;20209;-86
2021/01/30 00:24:18;;;;;;;21.52;17.25;;;-0.60;99.90;;;;;;5113746;28;20225;-87
2021/01/30 00:26:48;;;;;;;26.48;18.33;;;-0.50;99.90;;;;;;5110140;28;20229;-85
2021/01/30 00:29:15;;;;;;;23.60;16.88;;;-0.60;99.90;;;;;;5106195;28;20239;-86
2021/01/30 00:31:41;;;;;;;27.10;18.92;;;-0.60;99.90;;;;;;5107619;28;20212;-86
2021/01/30 00:34:08;;;;;;;24.48;16.25;;;-0.70;99.90;;;;;;5105568;28;20225;-85
2021/01/30 00:36:34;;;;;;;26.02;15.90;;;-0.60;99.90;;;;;;5106659;28;20205;-86
2021/01/30 00:39:00;;;;;;;25.33;15.25;;;-0.60;99.90;;;;;;5107823;28;20213;-86
2021/01/30 00:41:27;;;;;;;25.73;15.38;;;-0.60;99.90;;;;;;5105612;28;20205;-86
2021/01/30 00:43:53;;;;;;;19.95;14.57;;;-0.60;99.90;;;;;;5106902;28;20736;-86
2021/01/30 00:46:20;;;;;;;22.77;15.68;;;-0.60;99.90;;;;;;5104147;28;20305;-86
2021/01/30 00:48:46;;;;;;;24.05;16.55;;;-0.70;99.90;;;;;;5105518;28;20194;-86
2021/01/30 00:51:16;;;;;;;25.50;16.63;;;-0.70;99.90;;;;;;5104362;28;20213;-85
2021/01/30 00:53:42;;;;;;;25.30;14.32;;;-0.70;99.90;;;;;;5107715;28;20226;-85
2021/01/30 00:56:10;;;;;;;23.92;14.77;;;-0.70;99.90;;;;;;5107172;28;20202;-85
2021/01/30 00:58:36;;;;;;;23.23;17.05;;;-0.60;99.90;;;;;;5107352;28;20634;-86
2021/01/30 01:01:03;;;;;;;25.50;15.38;;;-0.60;99.90;;;;;;5108979;28;20198;-84
2021/01/30 01:03:30;;;;;;;17.92;12.88;;;-0.60;99.90;;;;;;5107312;28;20198;-85
2021/01/30 01:05:56;;;;;;;23.02;16.50;;;-0.60;99.90;;;;;;5105995;28;20265;-86
2021/01/30 01:08:23;;;;;;;22.90;15.23;;;-0.60;99.90;;;;;;5106112;28;20205;-85
2021/01/30 01:10:51;;;;;;;19.48;13.85;;;-0.60;99.90;;;;;;5106154;28;20197;-85
2021/01/30 01:13:18;;;;;;;22.73;15.07;;;-0.60;99.90;;;;;;5106813;28;20206;-85
2021/01/30 01:15:44;;;;;;;26.90;16.85;;;-0.60;99.90;;;;;;5107296;28;20221;-85
2021/01/30 01:18:11;;;;;;;20.77;14.15;;;-0.60;99.90;;;;;;5105525;28;20281;-85
2021/01/30 01:20:38;;;;;;;25.77;16.30;;;-0.60;99.90;;;;;;5106179;28;20222;-85
2021/01/30 01:23:05;;;;;;;24.85;16.30;;;-0.70;99.90;;;;;;5106505;28;20201;-85
2021/01/30 01:25:32;;;;;;;22.42;15.05;;;-0.70;99.90;;;;;;5106460;28;20229;-86
2021/01/30 01:27:59;;;;;;;22.70;16.35;;;-0.60;99.90;;;;;;5106311;28;20205;-86
2021/01/30 01:30:26;;;;;;;26.27;15.77;;;-0.60;99.90;;;;;;5105188;28;20209;-86
2021/01/30 01:32:54;;;;;;;23.05;15.43;;;-0.60;99.90;;;;;;5103723;28;20201;-85
2021/01/30 01:35:23;;;;;;;28.30;17.63;;;-0.60;99.90;;;;;;5103955;28;20312;-85
2021/01/30 01:37:51;;;;;;;25.85;16.27;;;-0.60;99.90;;;;;;5104684;28;20194;-85
2021/01/30 01:40:19;;;;;;;25.15;18.85;;;-0.70;99.90;;;;;;5104385;28;20308;-85
2021/01/30 01:42:46;;;;;;;25.10;18.52;;;-0.70;99.90;;;;;;5099993;28;20206;-85
2021/01/30 01:45:13;;;;;;;25.77;15.70;;;-0.70;99.90;;;;;;5107951;28;20237;-84
2021/01/30 01:47:43;;;;;;;28.10;15.85;;;-0.70;99.90;;;;;;5112455;28;20202;-84
2021/01/30 01:50:25;;;;;;;22.33;15.48;;;-0.80;99.90;;;;;;5111572;28;20208;-84
2021/01/30 01:52:57;;;;;;;19.10;14.13;;;-0.80;99.90;;;;;;5112733;28;20193;-84
2021/01/30 01:55:23;;;;;;;25.23;17.27;;;-0.80;99.90;;;;;;5110144;28;20228;-84
2021/01/30 01:57:53;;;;;;;20.92;15.25;;;-0.70;99.90;;;;;;5110162;28;20208;-85
2021/01/30 02:00:21;;;;;;;22.92;15.80;;;-0.70;99.90;;;;;;5108906;28;20247;-85
2021/01/30 02:02:49;;;;;;;22.10;14.20;;;-0.80;99.90;;;;;;5102007;28;20210;-85
2021/01/30 02:05:21;;;;;;;21.40;15.35;;;-0.80;99.90;;;;;;5101361;28;20295;-85
2021/01/30 02:07:48;;;;;;;19.77;14.60;;;-0.80;99.90;;;;;;5100671;28;20189;-84
2021/01/30 02:10:18;;;;;;;24.75;14.98;;;-1.00;99.90;;;;;;5099587;28;20201;-85
2021/01/30 02:12:46;;;;;;;22.92;15.15;;;-1.00;99.90;;;;;;5100083;28;20292;-85
2021/01/30 02:15:15;;;;;;;24.38;15.18;;;-0.90;99.90;;;;;;5100195;28;20218;-85
2021/01/30 02:17:45;;;;;;;20.27;15.57;;;-1.10;99.90;;;;;;5100093;28;20219;-85
2021/01/30 02:20:59;;;;;;;21.85;14.70;;;-1.00;99.90;;;;;;5103167;28;20210;-85
2021/01/30 02:24:04;;;;;;;16.33;12.65;;;-1.00;99.90;;;;;;5028719;28;20215;-85
2021/01/30 02:27:03;;;;;;;16.02;11.52;;;-1.10;99.90;;;;;;5110863;28;20198;-85
2021/01/30 02:29:58;;;;;;;13.75;10.70;;;-1.10;99.90;;;;;;5102715;28;20178;-85
2021/01/30 02:32:37;;;;;;;16.88;10.32;;;-1.10;99.90;;;;;;5105548;28;20544;-84
2021/01/30 02:35:33;;;;;;;13.73;10.00;;;-1.20;99.90;;;;;;5099288;28;20705;-84
2021/01/30 02:38:05;;;;;;;17.23;11.57;;;-1.20;99.90;;;;;;5099433;28;20190;-84
2021/01/30 02:40:37;;;;;;;16.08;10.50;;;-1.10;99.90;;;;;;5098270;28;20202;-85
2021/01/30 02:43:06;;;;;;;13.40;10.63;;;-1.10;99.90;;;;;;5098573;28;20553;-85
2021/01/30 02:45:35;;;;;;;15.25;11.75;;;-1.20;99.90;;;;;;5097909;28;20324;-85
2021/01/30 02:48:06;;;;;;;17.10;11.20;;;-1.20;99.90;;;;;;5097922;28;20212;-85
2021/01/30 02:50:36;;;;;;;18.95;12.63;;;-1.20;99.90;;;;;;5099029;28;20197;-85
2021/01/30 02:53:05;;;;;;;16.77;11.27;;;-1.20;99.90;;;;;;5098392;28;20198;-85
2021/01/30 02:55:34;;;;;;;18.40;11.95;;;-1.10;99.90;;;;;;5098808;28;20627;-85
2021/01/30 02:58:01;;;;;;;17.40;11.68;;;-1.10;99.90;;;;;;5098432;28;20227;-85
2021/01/30 03:00:28;;;;;;;19.33;12.23;;;-1.00;99.90;;;;;;5098411;28;20584;-84
2021/01/30 03:02:55;;;;;;;18.02;12.65;;;-1.00;99.90;;;;;;5098704;28;20197;-84
2021/01/30 03:05:23;;;;;;;19.58;12.57;;;-1.10;99.90;;;;;;5101297;28;20736;-84
2021/01/30 03:08:14;;;;;;;19.73;12.77;;;-1.10;99.90;;;;;;5098812;28;20232;-84
2021/01/30 03:10:47;;;;;;;21.75;14.02;;;-1.10;99.90;;;;;;5098913;28;20702;-84
2021/01/30 03:13:18;;;;;;;22.05;14.38;;;-1.10;99.90;;;;;;5101192;28;20186;-85
2021/01/30 03:15:50;;;;;;;21.10;13.80;;;-1.10;99.90;;;;;;5099116;28;20217;-84
2021/01/30 03:18:20;;;;;;;21.15;14.15;;;-1.00;99.90;;;;;;5099843;28;20189;-84
2021/01/30 03:20:47;;;;;;;20.60;13.60;;;-1.10;99.90;;;;;;5099079;28;20213;-85
2021/01/30 03:23:16;;;;;;;21.15;13.35;;;-1.20;99.90;;;;;;5098412;28;20197;-84
2021/01/30 03:25:44;;;;;;;19.15;13.57;;;-1.00;99.90;;;;;;5099347;28;20229;-84
2021/01/30 03:28:12;;;;;;;18.63;14.20;;;-1.00;99.90;;;;;;5099634;28;20690;-84
2021/01/30 03:30:39;;;;;;;20.70;12.45;;;-1.10;99.90;;;;;;5102839;28;20570;-85
2021/01/30 03:33:06;;;;;;;16.50;12.73;;;-1.00;99.90;;;;;;5102801;28;20201;-84
2021/01/30 03:35:33;;;;;;;15.85;12.60;;;-1.00;99.90;;;;;;5102387;28;20736;-85
2021/01/30 03:38:00;;;;;;;19.92;13.55;;;-0.90;99.90;;;;;;5102408;28;20210;-84
2021/01/30 03:40:27;;;;;;;17.83;12.82;;;-1.00;99.90;;;;;;5101728;28;20218;-85
2021/01/30 03:42:53;;;;;;;14.63;10.40;;;-0.90;99.90;;;;;;5102836;28;20201;-84
2021/01/30 03:45:23;;;;;;;17.00;11.68;;;-0.90;99.90;;;;;;5104002;28;20233;-83
2021/01/30 03:47:51;;;;;;;16.17;12.27;;;-1.00;99.90;;;;;;5104864;28;20205;-85
2021/01/30 03:50:19;;;;;;;16.60;13.00;;;-1.00;99.90;;;;;;5105096;28;20225;-84
2021/01/30 03:52:45;;;;;;;17.98;12.82;;;-1.00;99.90;;;;;;5105916;28;20202;-85
2021/01/30 03:55:12;;;;;;;17.05;11.80;;;-0.90;99.90;;;;;;5103805;28;20228;-85
2021/01/30 03:57:39;;;;;;;16.45;11.75;;;-0.90;99.90;;;;;;5104982;28;20212;-85
2021/01/30 04:00:09;;;;;;;18.92;12.30;;;-0.90;99.90;;;;;;5103709;28;20320;-85
2021/01/30 04:02:35;;;;;;;14.25;10.65;;;-0.90;99.90;;;;;;5105542;28;20654;-85
2021/01/30 04:05:01;;;;;;;14.23;11.35;;;-0.80;99.90;;;;;;5104683;28;20222;-84
2021/01/30 04:07:27;;;;;;;17.08;11.63;;;-0.80;99.90;;;;;;5104928;28;20212;-84
2021/01/30 04:09:53;;;;;;;16.85;11.77;;;-0.80;99.90;;;;;;5105820;28;20201;-85
2021/01/30 04:12:20;;;;;;;14.68;9.57;;;-0.80;99.90;;;;;;5105765;28;20224;-84
2021/01/30 04:14:47;;;;;;;16.90;11.48;;;-0.70;99.90;;;;;;5107276;28;20226;-84
2021/01/30 04:17:13;;;;;;;18.83;11.68;;;-0.90;99.90;;;;;;5106254;28;20204;-85
2021/01/30 04:19:40;;;;;;;16.30;11.15;;;-0.80;99.90;;;;;;5105386;28;20586;-85
2021/01/30 04:22:06;;;;;;;17.58;12.73;;;-0.70;99.90;;;;;;5104095;28;20274;-85
2021/01/30 04:24:33;;;;;;;15.30;10.52;;;-0.70;99.90;;;;;;5104247;28;20225;-85
2021/01/30 04:26:59;;;;;;;18.23;12.20;;;-0.70;99.90;;;;;;5104107;28;20206;-85
2021/01/30 04:29:25;;;;;;;18.83;13.13;;;-0.70;99.90;;;;;;5103008;28;20457;-85
2021/01/30 04:31:55;;;;;;;18.33;14.63;;;-0.60;99.90;;;;;;5104069;28;20436;-84
2021/01/30 04:34:21;;;;;;;22.10;14.25;;;-0.60;99.90;;;;;;5107557;28;20640;-84
2021/01/30 04:36:47;;;;;;;15.88;12.23;;;-0.50;99.90;;;;;;5106800;28;20237;-85
2021/01/30 04:39:14;;;;;;;17.67;12.90;;;-0.50;99.90;;;;;;5107597;28;20218;-85
2021/01/30 04:41:54;;;;;;;20.27;13.52;;;-0.60;99.90;;;;;;5108421;28;20231;-85
2021/01/30 04:44:27;;;;;;;19.50;13.10;;;-0.60;99.90;;;;;;5107701;28;20229;-85
2021/01/30 04:47:06;;;;;;;22.25;13.45;;;-0.60;99.90;;;;;;5109621;28;20185;-84
2021/01/30 04:49:45;;;;;;;20.05;13.32;;;-0.50;99.90;;;;;;5110117;28;20190;-84
2021/01/30 04:52:30;;;;;;;20.23;13.07;;;-0.60;99.90;;;;;;5109592;28;20189;-84
2021/01/30 04:55:07;;;;;;;23.52;14.15;;;-0.60;99.90;;;;;;5110504;28;20251;-85
2021/01/30 04:57:42;;;;;;;22.42;14.68;;;-0.60;99.90;;;;;;5120330;28;20429;-85
2021/01/30 05:00:27;;;;;;;25.55;15.05;;;-0.60;99.90;;;;;;5120722;27;20235;-85
2021/01/30 05:03:09;;;;;;;28.75;18.10;;;-0.60;99.90;;;;;;5119511;27;20429;-84
2021/01/30 05:05:37;;;;;;;24.13;16.35;;;-0.60;99.90;;;;;;5120789;27;20198;-84
2021/01/30 05:08:09;;;;;;;27.13;17.83;;;-0.70;99.90;;;;;;5119335;27;20412;-84
2021/01/30 05:10:39;;;;;;;25.92;16.70;;;-0.70;99.90;;;;;;5120295;28;20193;-84
2021/01/30 05:13:11;;;;;;;27.33;16.15;;;-0.80;99.90;;;;;;5117810;28;20613;-84
2021/01/30 05:15:40;;;;;;;25.50;17.48;;;-0.70;99.90;;;;;;5116193;28;20251;-84
2021/01/30 05:18:15;;;;;;;25.73;16.67;;;-0.60;99.90;;;;;;5111344;28;20688;-84
2021/01/30 05:20:48;;;;;;;37.30;19.33;;;-0.50;99.90;;;;;;5108066;28;20227;-84
2021/01/30 05:23:16;;;;;;;25.80;16.38;;;-0.50;99.90;;;;;;5110715;28;20193;-85
2021/01/30 05:25:43;;;;;;;30.88;16.85;;;-0.40;99.90;;;;;;5108652;28;20243;-85
2021/01/30 05:28:24;;;;;;;26.70;16.20;;;-0.50;99.90;;;;;;5107195;28;20201;-84
2021/01/30 05:30:58;;;;;;;25.73;15.60;;;-0.40;99.90;;;;;;5107456;28;20212;-85
2021/01/30 05:33:45;;;;;;;26.10;15.60;;;-0.50;99.90;;;;;;5105755;28;20198;-85
2021/01/30 05:36:15;;;;;;;27.95;17.38;;;-0.50;99.90;;;;;;5105067;28;20250;-83
2021/01/30 05:38:56;;;;;;;25.83;15.73;;;-0.50;99.90;;;;;;5104202;28;20201;-84
2021/01/30 05:41:34;;;;;;;24.88;16.10;;;-0.40;99.90;;;;;;5104859;28;20272;-84
2021/01/30 05:44:08;;;;;;;23.85;16.13;;;-0.60;99.90;;;;;;5105376;28;20229;-84
2021/01/30 05:46:34;;;;;;;29.92;19.10;;;-0.60;99.90;;;;;;5105683;28;20917;-85
2021/01/30 05:49:07;;;;;;;31.10;18.80;;;-0.50;99.90;;;;;;5106881;28;20235;-85
2021/01/30 05:51:38;;;;;;;26.67;17.85;;;-0.40;99.90;;;;;;5105420;28;20196;-84
2021/01/30 05:54:05;;;;;;;26.63;15.23;;;-0.60;99.90;;;;;;5105191;28;20753;-85
2021/01/30 05:56:37;;;;;;;28.70;18.75;;;-0.60;99.90;;;;;;5105276;28;20205;-84
2021/01/30 05:59:05;;;;;;;31.48;16.48;;;-0.50;99.90;;;;;;5104824;28;20181;-84
2021/01/30 06:01:32;;;;;;;27.65;16.80;;;-0.50;99.90;;;;;;5105505;28;20201;-84
2021/01/30 06:04:02;;;;;;;26.38;16.02;;;-0.40;99.90;;;;;;5104045;28;20221;-83
2021/01/30 06:06:33;;;;;;;34.25;18.92;;;-0.40;99.90;;;;;;5105288;28;20189;-85
2021/01/30 06:09:03;;;;;;;28.77;17.05;;;-0.40;99.90;;;;;;5108347;28;20186;-84
2021/01/30 06:11:44;;;;;;;27.50;17.08;;;-0.40;99.90;;;;;;5115544;27;20223;-83
2021/01/30 06:14:30;;;;;;;32.28;17.55;;;-0.40;99.90;;;;;;5115836;28;20281;-83
2021/01/30 06:16:59;;;;;;;35.45;19.08;;;-0.40;99.90;;;;;;5112437;28;20238;-83
2021/01/30 06:19:30;;;;;;;31.00;17.15;;;-0.50;99.90;;;;;;5110798;28;20266;-83
2021/01/30 06:22:13;;;;;;;34.35;19.45;;;-0.40;99.90;;;;;;5114985;28;20228;-84
2021/01/30 06:24:44;;;;;;;31.60;17.90;;;-0.40;99.90;;;;;;5111798;28;20226;-84
2021/01/30 06:27:18;;;;;;;31.45;17.75;;;-0.40;99.90;;;;;;5115347;28;20190;-84
2021/01/30 06:29:48;;;;;;;32.13;18.88;;;-0.30;99.90;;;;;;5114903;28;20177;-84
2021/01/30 06:32:25;;;;;;;31.95;18.05;;;-0.40;99.90;;;;;;5114549;28;20246;-84
2021/01/30 06:34:55;;;;;;;39.17;20.08;;;-0.40;99.90;;;;;;5113946;28;20225;-83
2021/01/30 06:37:35;;;;;;;29.00;18.50;;;-0.50;99.90;;;;;;5113566;28;20215;-84
2021/01/30 06:40:15;;;;;;;26.55;16.70;;;-0.40;99.90;;;;;;5113811;28;20222;-83
2021/01/30 06:42:44;;;;;;;34.13;19.35;;;-0.30;99.90;;;;;;5112958;28;20211;-83
2021/01/30 06:45:24;;;;;;;35.72;17.90;;;-0.30;99.90;;;;;;5113390;28;20237;-84
2021/01/30 06:47:51;;;;;;;35.67;19.65;;;-0.30;99.90;;;;;;5112408;28;20190;-84
2021/01/30 06:50:22;;;;;;;30.60;17.98;;;-0.30;99.90;;;;;;5111040;28;20265;-84
2021/01/30 06:52:49;;;;;;;30.15;16.92;;;-0.30;99.90;;;;;;5110685;28;20196;-84
2021/01/30 06:55:15;;;;;;;34.20;17.35;;;-0.30;99.90;;;;;;5109858;28;20221;-85
2021/01/30 06:57:49;;;;;;;34.60;19.35;;;-0.20;99.90;;;;;;5107226;28;20432;-84
2021/01/30 07:00:28;;;;;;;26.90;17.05;;;-0.30;99.90;;;;;;5106866;28;20227;-84
2021/01/30 07:03:11;;;;;;;27.02;15.98;;;-0.30;99.90;;;;;;5107200;28;20596;-84
2021/01/30 07:05:52;;;;;;;35.05;17.73;;;-0.30;99.90;;;;;;5105072;28;20233;-83
2021/01/30 07:08:42;;;;;;;32.05;19.55;;;-0.30;99.90;;;;;;5105049;28;20185;-84
2021/01/30 07:11:40;;;;;;;31.23;16.95;;;-0.30;99.90;;;;;;5105531;28;20189;-83
2021/01/30 07:14:16;;;;;;;25.42;16.02;;;-0.20;99.90;;;;;;5105731;28;20229;-83
2021/01/30 07:16:49;;;;;;;24.35;14.48;;;-0.30;99.90;;;;;;5104555;28;20185;-84
2021/01/30 07:19:26;;;;;;;69.88;38.55;;;-0.20;99.90;;;;;;5102287;28;20449;-84
2021/01/30 07:21:58;;;;;;;27.17;16.90;;;-0.10;99.90;;;;;;5102151;28;20437;-83
2021/01/30 07:24:29;;;;;;;28.40;16.00;;;0.00;99.90;;;;;;5103040;28;20722;-83
2021/01/30 07:26:59;;;;;;;18.88;13.40;;;-0.10;99.90;;;;;;5103486;28;20499;-84
2021/01/30 07:29:41;;;;;;;21.60;13.70;;;-0.10;99.90;;;;;;5107319;28;20233;-84
2021/01/30 07:32:14;;;;;;;23.33;11.57;;;-0.20;99.90;;;;;;5117223;28;20174;-83
2021/01/30 07:34:52;;;;;;;19.20;11.32;;;-0.20;99.90;;;;;;5117702;28;20217;-83
2021/01/30 07:37:27;;;;;;;23.40;13.65;;;-0.20;99.90;;;;;;5116928;28;20420;-83
2021/01/30 07:39:59;;;;;;;19.02;12.70;;;-0.20;99.90;;;;;;5117770;28;20262;-83
2021/01/30 07:42:34;;;;;;;13.82;9.65;;;-0.20;99.90;;;;;;5118400;28;20173;-83
2021/01/30 07:45:09;;;;;;;13.90;8.90;;;-0.20;99.90;;;;;;5117802;27;20244;-83
2021/01/30 07:47:43;;;;;;;17.52;11.45;;;-0.20;99.90;;;;;;5116865;28;20169;-83
2021/01/30 07:50:21;;;;;;;18.02;12.18;;;-0.20;99.90;;;;;;5115454;28;20181;-83
2021/01/30 07:52:59;;;;;;;17.85;12.13;;;-0.10;99.90;;;;;;5115103;28;20433;-83
2021/01/30 07:55:26;;;;;;;24.42;12.32;;;0.00;99.90;;;;;;5114338;28;20201;-82
2021/01/30 07:58:18;;;;;;;15.48;10.02;;;-0.10;99.90;;;;;;5113833;28;20202;-85
2021/01/30 08:01:01;;;;;;;18.00;11.93;;;0.00;99.90;;;;;;5102021;28;20487;-83
2021/01/30 08:03:50;;;;;;;15.63;10.88;;;0.20;99.90;;;;;;5108301;28;20223;-83
2021/01/30 08:06:39;;;;;;;16.05;10.50;;;0.20;99.90;;;;;;5106570;28;20213;-82
2021/01/30 08:09:15;;;;;;;14.10;10.45;;;0.10;99.90;;;;;;5105958;28;20262;-84
2021/01/30 08:11:54;;;;;;;12.75;9.25;;;0.00;99.90;;;;;;5111733;28;20195;-84
2021/01/30 08:14:33;;;;;;;12.27;7.95;;;0.00;99.90;;;;;;5117074;27;20221;-83
2021/01/30 08:17:07;;;;;;;12.40;8.70;;;0.10;99.90;;;;;;5113892;28;20212;-83
2021/01/30 08:19:43;;;;;;;12.82;8.52;;;0.10;99.90;;;;;;5110224;28;20296;-84
2021/01/30 08:22:16;;;;;;;9.90;7.45;;;0.00;99.90;;;;;;5108382;28;20185;-83
2021/01/30 08:24:51;;;;;;;11.13;8.30;;;-0.10;99.90;;;;;;5108055;28;20222;-84
2021/01/30 08:27:23;;;;;;;10.73;7.47;;;0.10;99.90;;;;;;5107604;28;20190;-84
2021/01/30 08:29:54;;;;;;;9.68;7.20;;;0.00;99.90;;;;;;5117030;28;20173;-83
2021/01/30 08:32:53;;;;;;;14.18;8.52;;;0.10;99.90;;;;;;5119479;28;20242;-83
2021/01/30 08:35:44;;;;;;;12.05;9.10;;;0.20;99.90;;;;;;5119101;28;20250;-83
2021/01/30 08:38:29;;;;;;;11.95;8.30;;;0.10;99.90;;;;;;5119087;27;20211;-84
2021/01/30 08:40:59;;;;;;;15.07;9.48;;;0.10;99.90;;;;;;5118979;28;20685;-84
2021/01/30 08:43:36;;;;;;;12.30;8.93;;;0.30;99.90;;;;;;5118675;28;20201;-84
2021/01/30 08:46:23;;;;;;;14.05;9.10;;;0.40;99.90;;;;;;5112487;28;20205;-83
2021/01/30 08:49:05;;;;;;;14.30;9.35;;;0.30;99.90;;;;;;5108928;28;20189;-83
2021/01/30 08:51:32;;;;;;;15.15;10.93;;;0.40;99.90;;;;;;5109595;28;20213;-84
2021/01/30 08:54:18;;;;;;;13.50;9.30;;;0.50;99.90;;;;;;5107054;28;20222;-83
2021/01/30 08:56:48;;;;;;;12.70;9.48;;;0.30;99.90;;;;;;5106960;28;20198;-84
2021/01/30 08:59:40;;;;;;;15.40;9.77;;;0.40;99.90;;;;;;5107566;28;20650;-83
2021/01/30 09:02:09;;;;;;;15.63;11.00;;;0.50;99.90;;;;;;5107432;28;20225;-83
2021/01/30 09:04:45;;;;;;;13.77;9.90;;;0.60;99.90;;;;;;5107045;28;20298;-83
2021/01/30 09:07:40;;;;;;;16.73;12.38;;;0.60;99.90;;;;;;5107439;28;20186;-83
2021/01/30 09:10:35;;;;;;;16.65;10.55;;;0.50;99.90;;;;;;5098233;28;20201;-83
2021/01/30 09:13:08;;;;;;;15.60;11.43;;;0.50;99.90;;;;;;5107829;28;20190;-83
2021/01/30 09:16:00;;;;;;;18.08;11.05;;;0.60;99.90;;;;;;5106539;28;20225;-84
2021/01/30 09:18:49;;;;;;;15.23;10.60;;;0.50;99.90;;;;;;5107587;28;20210;-84
2021/01/30 09:21:23;;;;;;;14.60;9.68;;;0.50;99.90;;;;;;5107008;28;20313;-83
2021/01/30 09:24:07;;;;;;;17.35;9.82;;;0.60;99.90;;;;;;5108283;28;20217;-84
2021/01/30 09:26:49;;;;;;;14.30;8.45;;;0.80;99.90;;;;;;5106305;28;20190;-85
2021/01/30 09:29:23;;;;;;;11.15;8.35;;;0.60;99.90;;;;;;5106872;28;20190;-84
2021/01/30 09:31:55;;;;;;;13.30;9.93;;;0.60;99.90;;;;;;5106218;28;20279;-85
2021/01/30 09:34:23;;;;;;;11.13;8.80;;;0.50;99.90;;;;;;5106437;28;20272;-84
2021/01/30 09:36:51;;;;;;;12.65;8.93;;;0.50;99.90;;;;;;5106024;28;20201;-84
2021/01/30 09:39:22;;;;;;;11.80;9.48;;;0.60;99.90;;;;;;5104237;28;20212;-84
2021/01/30 09:41:49;;;;;;;20.42;10.85;;;0.60;99.90;;;;;;5104093;28;20206;-84
2021/01/30 09:44:21;;;;;;;15.65;9.07;;;0.70;99.90;;;;;;5103454;28;20717;-83
2021/01/30 09:46:50;;;;;;;17.08;11.32;;;0.70;99.90;;;;;;5111748;27;20272;-83
2021/01/30 09:49:21;;;;;;;13.27;10.15;;;0.70;99.90;;;;;;5118545;28;20204;-83
2021/01/30 09:51:48;;;;;;;13.50;11.00;;;0.70;99.90;;;;;;5118287;28;20204;-84
2021/01/30 09:54:16;;;;;;;14.32;11.55;;;0.70;99.90;;;;;;5118907;27;20201;-83
2021/01/30 09:56:44;;;;;;;13.85;11.20;;;0.70;99.90;;;;;;5119870;27;20198;-84
2021/01/30 09:59:14;;;;;;;13.85;10.70;;;0.70;99.90;;;;;;5119173;27;20197;-84
2021/01/30 10:01:42;;;;;;;15.00;10.13;;;0.70;99.90;;;;;;5111698;28;20262;-82
2021/01/30 10:04:18;;;;;;;15.25;10.60;;;0.60;99.90;;;;;;5105692;28;20245;-85
2021/01/30 10:06:45;;;;;;;19.85;11.93;;;0.60;99.90;;;;;;5105879;28;20208;-85
2021/01/30 10:09:18;;;;;;;16.08;11.45;;;0.70;99.90;;;;;;5107080;28;20206;-83
2021/01/30 10:11:48;;;;;;;16.15;10.50;;;0.70;99.90;;;;;;5106794;28;20236;-85
2021/01/30 10:14:19;;;;;;;18.90;11.20;;;0.70;99.90;;;;;;5105757;28;20633;-83
2021/01/30 10:16:59;;;;;;;22.58;11.63;;;0.50;99.90;;;;;;5101098;28;20185;-84
2021/01/30 10:19:28;;;;;;;15.00;11.45;;;0.60;99.90;;;;;;5101551;28;20207;-85
2021/01/30 10:21:54;;;;;;;18.58;12.60;;;0.60;99.90;;;;;;5108705;28;20227;-84
2021/01/30 10:24:24;;;;;;;11.30;7.90;;;0.70;99.90;;;;;;5105670;28;20281;-84
2021/01/30 10:26:53;;;;;;;12.00;9.45;;;0.70;99.90;;;;;;5102661;28;20610;-84
2021/01/30 10:29:22;;;;;;;14.35;9.95;;;0.70;99.90;;;;;;5102102;28;20227;-84
2021/01/30 10:31:52;;;;;;;12.88;8.77;;;0.90;99.90;;;;;;5101168;28;20202;-84
2021/01/30 10:34:24;;;;;;;13.73;9.85;;;0.80;99.90;;;;;;5104258;28;20239;-83
2021/01/30 10:36:55;;;;;;;9.38;8.30;;;0.80;99.90;;;;;;5105153;28;20192;-83
2021/01/30 10:39:23;;;;;;;10.73;8.25;;;0.90;99.90;;;;;;5105115;28;20188;-83
2021/01/30 10:41:51;;;;;;;9.63;7.03;;;0.90;99.90;;;;;;5101974;28;20233;-84
2021/01/30 10:44:25;;;;;;;9.30;6.32;;;0.90;99.90;;;;;;5101485;28;20230;-83
2021/01/30 10:46:58;;;;;;;11.27;8.27;;;1.10;99.90;;;;;;5100937;28;20181;-83
2021/01/30 10:49:28;;;;;;;7.32;6.47;;;0.90;99.90;;;;;;5103104;28;20524;-84
2021/01/30 10:52:03;;;;;;;6.93;6.00;;;1.00;99.90;;;;;;5100579;28;20531;-85
2021/01/30 10:54:30;;;;;;;7.13;5.80;;;1.00;99.90;;;;;;5101220;28;20221;-85
2021/01/30 10:57:09;;;;;;;8.10;5.95;;;0.90;99.90;;;;;;5100051;28;20209;-85
2021/01/30 10:59:59;;;;;;;7.40;6.03;;;0.90;99.90;;;;;;5099307;28;20213;-85
2021/01/30 11:02:45;;;;;;;6.20;5.60;;;0.80;99.90;;;;;;5091945;28;20206;-85
2021/01/30 11:05:31;;;;;;;10.45;7.30;;;1.00;99.90;;;;;;5099128;28;20233;-86
2021/01/30 11:08:01;;;;;;;7.68;5.78;;;1.10;99.90;;;;;;5092433;28;20248;-86
2021/01/30 11:10:34;;;;;;;7.15;5.30;;;1.00;99.90;;;;;;5106656;28;20197;-85
2021/01/30 11:13:14;;;;;;;8.07;6.50;;;1.10;99.90;;;;;;5117445;27;20174;-85
2021/01/30 11:15:42;;;;;;;9.32;5.70;;;0.90;99.90;;;;;;5118849;27;20205;-85
2021/01/30 11:18:31;;;;;;;6.82;5.47;;;1.00;99.90;;;;;;5118207;27;20190;-84
2021/01/30 11:20:59;;;;;;;6.22;5.55;;;1.00;99.90;;;;;;5117154;28;20210;-85
2021/01/30 11:23:37;;;;;;;5.53;5.10;;;1.00;99.90;;;;;;5103905;28;20212;-85
2021/01/30 11:26:35;;;;;;;5.07;4.45;;;1.10;99.90;;;;;;5101523;28;20186;-85
2021/01/30 11:29:04;;;;;;;5.30;4.45;;;1.10;99.90;;;;;;5045647;28;20618;-85
2021/01/30 11:31:31;;;;;;;7.53;4.53;;;1.10;99.90;;;;;;5100656;28;20206;-85
2021/01/30 11:33:59;;;;;;;4.88;4.18;;;1.10;99.90;;;;;;5100385;28;20221;-84
2021/01/30 11:36:25;;;;;;;5.78;3.92;;;1.10;99.90;;;;;;5101037;28;20201;-85
2021/01/30 11:39:28;;;;;;;5.82;4.68;;;1.00;99.90;;;;;;5099533;28;20206;-86
2021/01/30 11:41:56;;;;;;;7.70;4.60;;;0.90;99.90;;;;;;5103354;28;20226;-86
2021/01/30 11:44:23;;;;;;;5.10;4.60;;;1.00;99.90;;;;;;5098071;28;20239;-85
2021/01/30 11:46:50;;;;;;;5.45;4.30;;;1.00;99.90;;;;;;5102155;28;20201;-84
2021/01/30 11:49:17;;;;;;;7.30;5.15;;;1.00;99.90;;;;;;5104773;28;20202;-84
2021/01/30 11:51:46;;;;;;;5.88;4.80;;;1.00;99.90;;;;;;5109890;28;20205;-84
2021/01/30 11:54:14;;;;;;;4.40;4.00;;;1.10;99.90;;;;;;5108275;28;20225;-84
2021/01/30 11:56:41;;;;;;;4.82;4.25;;;1.10;99.90;;;;;;5108764;28;20212;-84
2021/01/30 11:59:12;;;;;;;3.67;3.38;;;0.90;99.90;;;;;;5106451;28;20205;-84
2021/01/30 12:01:38;;;;;;;4.40;4.00;;;1.00;99.90;;;;;;5106471;28;20210;-84
2021/01/30 12:04:15;;;;;;;6.25;3.35;;;1.00;99.90;;;;;;5107943;28;20222;-83
2021/01/30 12:06:42;;;;;;;6.43;4.95;;;1.00;99.90;;;;;;5106744;28;20444;-84
2021/01/30 12:09:08;;;;;;;5.07;3.93;;;0.90;99.90;;;;;;5105729;28;20524;-85
2021/01/30 12:11:38;;;;;;;5.70;4.38;;;0.90;99.90;;;;;;5106943;28;20454;-84
2021/01/30 12:14:04;;;;;;;4.35;3.92;;;1.00;99.90;;;;;;5106714;28;20233;-84
2021/01/30 12:16:37;;;;;;;3.70;3.03;;;1.00;99.90;;;;;;5107366;28;20681;-84
2021/01/30 12:19:03;;;;;;;4.00;3.63;;;1.10;99.90;;;;;;5107700;28;20511;-84
2021/01/30 12:21:30;;;;;;;3.35;3.05;;;1.20;99.90;;;;;;5105089;28;20741;-84
2021/01/30 12:23:57;;;;;;;4.25;3.35;;;1.20;99.90;;;;;;5104305;28;20440;-84
2021/01/30 12:26:27;;;;;;;4.60;4.15;;;1.30;99.90;;;;;;5103615;28;20447;-87
2021/01/30 12:28:53;;;;;;;6.15;4.70;;;1.40;99.90;;;;;;5101694;28;20209;-87
2021/01/30 12:31:23;;;;;;;5.95;4.68;;;1.50;99.90;;;;;;5102132;28;20692;-86
2021/01/30 12:33:49;;;;;;;5.88;4.13;;;1.70;99.90;;;;;;5100999;28;20230;-84
2021/01/30 12:36:15;;;;;;;5.53;4.38;;;1.60;99.90;;;;;;5100455;28;20677;-85
2021/01/30 12:38:42;;;;;;;4.45;4.05;;;1.70;99.90;;;;;;5103570;28;20250;-85
2021/01/30 12:41:11;;;;;;;5.72;4.63;;;1.60;99.90;;;;;;5100949;28;20218;-84
2021/01/30 12:43:37;;;;;;;4.93;4.20;;;1.60;99.90;;;;;;5101228;28;20201;-84
2021/01/30 12:46:04;;;;;;;4.22;3.70;;;1.80;99.90;;;;;;5104661;28;20686;-85
2021/01/30 12:48:30;;;;;;;4.10;3.70;;;1.80;99.90;;;;;;5104050;28;20212;-85
2021/01/30 12:50:57;;;;;;;4.22;3.83;;;1.80;99.90;;;;;;5103513;28;20193;-85
2021/01/30 12:53:24;;;;;;;6.22;4.28;;;1.80;99.90;;;;;;5102864;28;20206;-84
2021/01/30 12:55:50;;;;;;;3.95;3.60;;;1.70;99.90;;;;;;5101902;28;20231;-85
2021/01/30 12:58:19;;;;;;;4.78;3.63;;;1.60;99.90;;;;;;5105090;28;20293;-85
2021/01/30 13:00:47;;;;;;;4.75;3.67;;;1.60;99.90;;;;;;5101772;28;20224;-85
2021/01/30 13:03:14;;;;;;;4.00;3.70;;;1.50;99.90;;;;;;5101109;28;20557;-85